Ellsburg, Minnesota
Current Conditions -  °F | °C
As of 1:51 PM on Friday 24 Oct 2014 (Local Time) from KEVM Reporting Station
Clear Clear  
Wind Chill: 64°   Ceiling: Unl
Heat Index: 64°   Visibility: 10mi
Dew Point: 45°   Wind: 10mph
Humidity: 49%   Direction: 220°SW
Pressure: 29.76"   Gusts: 16mph
Location:  47.2457°N, 92.4531°W
Report Text: KEVM 241851Z AUTO 22009G14KT 10SM CLR 18/07 A2976 RMK AO2
Loading
Personal Weather Stations






























Interactive Weather Map
Tropical Storm Tracking
New forecast layout! Learn more

10-Day Weather Forecast

Advertisements
Track Severe Weather on mobile